createdAt,value
2019-02-04T19:30:59.468Z,1008.99
2019-02-04T19:31:59.506Z,1008.99
2019-02-04T19:32:59.426Z,1008.96
2019-02-04T19:33:59.390Z,1008.97
2019-02-04T19:34:59.378Z,1008.96
2019-02-04T19:35:59.356Z,1008.97
2019-02-04T19:36:59.327Z,1008.95
2019-02-04T19:37:59.310Z,1009.05
2019-02-04T19:38:59.298Z,1009.01
2019-02-04T19:39:59.284Z,1009.06
2019-02-04T19:40:59.244Z,1009.00
2019-02-04T19:41:59.231Z,1009.04
2019-02-04T19:42:59.259Z,1009.04
2019-02-04T19:43:59.180Z,1009.00
2019-02-04T19:44:59.173Z,1009.05
2019-02-04T19:45:59.146Z,1009.10
2019-02-04T19:46:59.122Z,1009.06
2019-02-04T19:47:59.109Z,1009.04
2019-02-04T19:48:59.096Z,1009.08
2019-02-04T19:49:59.087Z,1009.13
2019-02-04T19:50:59.047Z,1009.16
2019-02-04T19:51:59.074Z,1009.21
2019-02-04T19:52:59.004Z,1009.22
2019-02-04T19:53:58.990Z,1009.28
2019-02-04T19:54:59.004Z,1009.25
2019-02-04T19:55:59.008Z,1009.25
2019-02-04T19:56:58.921Z,1009.24
2019-02-04T19:57:58.911Z,1009.22
2019-02-04T19:58:58.881Z,1009.22
2019-02-04T19:59:58.860Z,1009.24
2019-02-04T20:00:58.847Z,1009.29
2019-02-04T20:01:58.859Z,1009.33
2019-02-04T20:02:58.810Z,1009.30
2019-02-04T20:03:58.784Z,1009.29
2019-02-04T20:04:58.779Z,1009.29
2019-02-04T20:05:58.738Z,1009.23
2019-02-04T20:06:58.757Z,1009.27
2019-02-04T20:07:58.696Z,1009.17
2019-02-04T20:08:58.686Z,1009.15
2019-02-04T20:09:58.667Z,1009.22
2019-02-04T20:10:58.639Z,1009.27
2019-02-04T20:11:58.679Z,1009.30
2019-02-04T20:12:58.610Z,1009.26
2019-02-04T20:13:58.577Z,1009.26
2019-02-04T20:14:58.560Z,1009.24
2019-02-04T20:15:58.669Z,1009.27
2019-02-04T20:16:58.515Z,1009.31
2019-02-04T20:17:58.504Z,1009.30
2019-02-04T20:18:58.509Z,1009.32
2019-02-04T20:19:58.464Z,1009.30
2019-02-04T20:20:58.441Z,1009.29
2019-02-04T20:21:58.421Z,1009.31
2019-02-04T20:22:58.431Z,1009.33
2019-02-04T20:23:58.377Z,1009.39
2019-02-04T20:24:58.364Z,1009.31
2019-02-04T20:25:58.334Z,1009.34
2019-02-04T20:26:58.311Z,1009.36
2019-02-04T20:27:58.366Z,1009.38
2019-02-04T20:28:58.287Z,1009.35
2019-02-04T20:29:58.251Z,1009.34
2019-02-04T20:30:58.239Z,1009.39
2019-02-04T20:31:58.217Z,1009.40
2019-02-04T20:32:58.190Z,1009.39
2019-02-04T20:33:58.213Z,1009.38
2019-02-04T20:34:58.161Z,1009.40
2019-02-04T20:35:58.130Z,1009.40
2019-02-04T20:36:58.108Z,1009.35
2019-02-04T20:37:58.095Z,1009.41
2019-02-04T20:38:58.134Z,1009.37
2019-02-04T20:39:58.047Z,1009.40
2019-02-04T20:40:58.039Z,1009.41
2019-02-04T20:41:58.013Z,1009.41
2019-02-04T20:42:58.000Z,1009.44
2019-02-04T20:43:57.974Z,1009.47
2019-02-04T20:44:57.964Z,1009.44
2019-02-04T20:45:58.080Z,1009.47
2019-02-04T20:46:57.906Z,1009.48
2019-02-04T20:47:57.901Z,1009.50
2019-02-04T20:48:57.862Z,1009.42
2019-02-04T20:49:57.846Z,1009.46
2019-02-04T20:51:00.034Z,1009.48
2019-02-04T20:51:57.864Z,1009.43
2019-02-04T20:52:57.783Z,1009.44
2019-02-04T20:53:57.766Z,1009.50
2019-02-04T20:54:57.754Z,1009.46
2019-02-04T20:55:57.781Z,1009.47
2019-02-04T20:56:57.712Z,1009.50
2019-02-04T20:57:57.695Z,1009.47
2019-02-04T20:58:57.680Z,1009.57
2019-02-04T20:59:57.656Z,1009.47
2019-02-04T21:00:57.625Z,1009.56
2019-02-04T21:01:57.647Z,1009.56
2019-02-04T21:02:57.584Z,1009.52
2019-02-04T21:03:57.582Z,1009.50
2019-02-04T21:04:57.557Z,1009.52
2019-02-04T21:05:57.540Z,1009.53
2019-02-04T21:06:57.548Z,1009.51
2019-02-04T21:07:57.489Z,1009.60
2019-02-04T21:08:57.626Z,1009.58
2019-02-04T21:09:57.450Z,1009.59
2019-02-04T21:10:57.420Z,1009.54
2019-02-04T21:11:57.454Z,1009.57
2019-02-04T21:12:57.387Z,1009.67
2019-02-04T21:13:57.372Z,1009.57
2019-02-04T21:14:57.351Z,1009.60
2019-02-04T21:15:57.324Z,1009.58
2019-02-04T21:16:57.306Z,1009.51
2019-02-04T21:17:57.314Z,1009.47
2019-02-04T21:18:57.269Z,1009.51
2019-02-04T21:19:57.252Z,1009.45
2019-02-04T21:20:57.237Z,1009.44
2019-02-04T21:21:57.240Z,1009.47
2019-02-04T21:22:57.316Z,1009.49
2019-02-04T21:23:57.155Z,1009.46
2019-02-04T21:24:57.138Z,1009.63
2019-02-04T21:25:57.124Z,1009.52
2019-02-04T21:26:57.104Z,1009.55
2019-02-04T21:27:57.086Z,1009.63
2019-02-04T21:28:57.098Z,1009.61
2019-02-04T21:29:57.033Z,1009.55
2019-02-04T21:30:57.027Z,1009.61
2019-02-04T21:31:57.011Z,1009.65
2019-02-04T21:32:56.984Z,1009.67
2019-02-04T21:33:56.996Z,1009.65
2019-02-04T21:34:56.937Z,1009.65
2019-02-04T21:35:56.929Z,1009.55
2019-02-04T21:36:56.894Z,1009.60
2019-02-04T21:37:56.914Z,1009.57
2019-02-04T21:38:56.866Z,1009.56
2019-02-04T21:39:56.842Z,1009.56
2019-02-04T21:40:56.811Z,1009.58
2019-02-04T21:41:56.792Z,1009.57
2019-02-04T21:42:56.813Z,1009.63
2019-02-04T21:43:56.758Z,1009.63
2019-02-04T21:44:56.742Z,1009.67
2019-02-04T21:45:56.711Z,1009.66
2019-02-04T21:46:56.737Z,1009.71
2019-02-04T21:47:56.680Z,1009.67
2019-02-04T21:48:56.688Z,1009.68
2019-02-04T21:49:56.642Z,1009.76
2019-02-04T21:50:56.651Z,1009.62
2019-02-04T21:51:56.662Z,1009.61
2019-02-04T21:52:56.570Z,1009.67
2019-02-04T21:53:56.598Z,1009.62
2019-02-04T21:55:07.745Z,1009.66
2019-02-04T21:55:56.525Z,1009.65
2019-02-04T21:56:56.508Z,1009.61
2019-02-04T21:57:56.477Z,1009.70
2019-02-04T21:58:56.454Z,1009.74
2019-02-04T21:59:56.429Z,1009.83
2019-02-04T22:00:56.478Z,1009.75
2019-02-04T22:01:56.413Z,1009.74
2019-02-04T22:02:56.396Z,1009.73
2019-02-04T22:03:56.363Z,1009.76
2019-02-04T22:04:56.335Z,1009.76
2019-02-04T22:05:56.325Z,1009.78
2019-02-04T22:06:56.321Z,1009.78
2019-02-04T22:07:56.276Z,1009.72
2019-02-04T22:08:56.246Z,1009.81
2019-02-04T22:09:56.272Z,1009.83
2019-02-04T22:10:56.210Z,1009.79
2019-02-04T22:11:56.251Z,1009.84
2019-02-04T22:12:56.357Z,1009.77
2019-02-04T22:13:56.152Z,1009.77
2019-02-04T22:14:56.127Z,1009.74
2019-02-04T22:15:56.117Z,1009.86
2019-02-04T22:16:56.130Z,1009.81
2019-02-04T22:17:56.065Z,1009.88
2019-02-04T22:18:56.094Z,1009.82
2019-02-04T22:19:56.025Z,1009.86
2019-02-04T22:20:56.005Z,1009.82
2019-02-04T22:21:55.978Z,1009.84
2019-02-04T22:22:55.973Z,1009.76
2019-02-04T22:23:55.974Z,1009.81
2019-02-04T22:24:55.930Z,1009.73
2019-02-04T22:25:55.910Z,1009.78
2019-02-04T22:26:55.877Z,1009.72
2019-02-04T22:27:55.860Z,1009.79
2019-02-04T22:28:56.124Z,1009.74
2019-02-04T22:29:55.820Z,1009.71
2019-02-04T22:30:55.801Z,1009.73
2019-02-04T22:31:55.797Z,1009.68
2019-02-04T22:32:56.071Z,1009.69
2019-02-04T22:33:55.772Z,1009.69
2019-02-04T22:34:55.762Z,1009.63
2019-02-04T22:35:55.702Z,1009.72
2019-02-04T22:36:55.678Z,1009.77
2019-02-04T22:37:55.658Z,1009.66
2019-02-04T22:38:55.702Z,1009.70
2019-02-04T22:39:55.615Z,1009.70
2019-02-04T22:40:55.612Z,1009.73
2019-02-04T22:41:55.591Z,1009.72
2019-02-04T22:42:55.556Z,1009.68
2019-02-04T22:43:55.544Z,1009.62
2019-02-04T22:44:55.525Z,1009.67
2019-02-04T22:45:55.492Z,1009.75
2019-02-04T22:46:55.479Z,1009.70
2019-02-04T22:47:55.470Z,1009.70
2019-02-04T22:48:55.480Z,1009.68
2019-02-04T22:49:55.421Z,1009.71
2019-02-04T22:50:55.424Z,1009.73
2019-02-04T22:51:55.371Z,1009.66
2019-02-04T22:52:55.364Z,1009.64
2019-02-04T22:53:55.346Z,1009.65
2019-02-04T22:54:55.321Z,1009.70
2019-02-04T22:55:55.328Z,1009.65
2019-02-04T22:56:55.275Z,1009.71
2019-02-04T22:57:55.247Z,1009.73
2019-02-04T22:58:55.376Z,1009.63
2019-02-04T22:59:55.227Z,1009.68
2019-02-04T23:00:55.224Z,1009.73
2019-02-04T23:01:55.284Z,1009.75
2019-02-04T23:02:55.154Z,1009.71
2019-02-04T23:03:55.141Z,1009.78
2019-02-04T23:04:55.122Z,1009.81
2019-02-04T23:05:55.089Z,1009.81
2019-02-04T23:06:55.071Z,1009.85
2019-02-04T23:07:55.044Z,1009.80
2019-02-04T23:08:55.085Z,1009.80
2019-02-04T23:09:55.003Z,1009.78
2019-02-04T23:10:54.986Z,1009.86
2019-02-04T23:11:55.046Z,1009.85
2019-02-04T23:12:54.946Z,1009.79
2019-02-04T23:13:54.928Z,1009.84
2019-02-04T23:14:54.908Z,1009.83
2019-02-04T23:15:54.881Z,1009.81
2019-02-04T23:16:54.877Z,1009.82
2019-02-04T23:17:54.987Z,1009.86
2019-02-04T23:18:54.838Z,1009.77
2019-02-04T23:19:54.810Z,1009.75
2019-02-04T23:20:54.884Z,1009.76
2019-02-04T23:21:54.786Z,1009.78
2019-02-04T23:22:54.744Z,1009.78
2019-02-04T23:23:54.800Z,1009.87
2019-02-04T23:24:54.704Z,1009.84
2019-02-04T23:25:54.683Z,1009.83
2019-02-04T23:26:54.665Z,1009.78
2019-02-04T23:27:54.642Z,1009.85
2019-02-04T23:28:55.911Z,1009.81
2019-02-04T23:29:54.621Z,1009.96
2019-02-04T23:30:54.587Z,1009.82
2019-02-04T23:31:54.559Z,1009.87
2019-02-04T23:32:54.550Z,1009.88
2019-02-04T23:33:54.521Z,1009.88
2019-02-04T23:34:54.522Z,1009.82
2019-02-04T23:35:54.487Z,1009.82
2019-02-04T23:36:54.462Z,1009.76
2019-02-04T23:37:54.431Z,1009.73
2019-02-04T23:38:54.442Z,1009.76
2019-02-04T23:39:54.399Z,1009.74
2019-02-04T23:40:54.379Z,1009.77
2019-02-04T23:41:57.744Z,1009.78
2019-02-04T23:42:54.331Z,1009.83
2019-02-04T23:43:54.330Z,1009.80
2019-02-04T23:44:54.297Z,1009.85
2019-02-04T23:45:54.282Z,1009.88
2019-02-04T23:46:54.296Z,1009.89
2019-02-04T23:47:54.240Z,1009.87
2019-02-04T23:48:54.218Z,1009.91
2019-02-04T23:49:54.196Z,1009.87
2019-02-04T23:50:54.167Z,1009.93
2019-02-04T23:51:54.173Z,1009.97
2019-02-04T23:52:54.134Z,1009.96
2019-02-04T23:53:54.110Z,1009.93
2019-02-04T23:54:54.135Z,1009.87
2019-02-04T23:55:54.917Z,1009.90
2019-02-04T23:56:54.066Z,1009.95
2019-02-04T23:57:54.174Z,1009.94
2019-02-04T23:58:54.005Z,1009.93
2019-02-04T23:59:53.995Z,1009.92
